createdAt,value
2019-06-11T00:00:22.195Z,11.41
2019-06-11T00:01:34.703Z,11.41
2019-06-11T00:02:47.174Z,11.52
2019-06-11T00:04:03.431Z,11.43
2019-06-11T00:05:16.974Z,11.43
2019-06-11T00:06:28.703Z,11.48
2019-06-11T00:07:39.491Z,11.44
2019-06-11T00:08:52.996Z,11.45
2019-06-11T00:10:16.785Z,11.41
2019-06-11T00:11:28.551Z,11.4
2019-06-11T00:12:40.079Z,11.38
2019-06-11T00:13:52.582Z,11.31
2019-06-11T00:15:08.543Z,11.26
2019-06-11T00:16:23.122Z,11.33
2019-06-11T00:17:35.431Z,11.23
2019-06-11T00:18:47.618Z,11.13
2019-06-11T00:20:03.327Z,11.22
2019-06-11T00:21:14.749Z,11.25
2019-06-11T00:22:25.240Z,11.18
2019-06-11T00:23:37.699Z,11.18
2019-06-11T00:24:48.257Z,11.25
2019-06-11T00:26:03.891Z,11.19
2019-06-11T00:27:15.655Z,11.23
2019-06-11T00:28:27.693Z,11.26
2019-06-11T00:29:38.077Z,11.18
2019-06-11T00:30:52.447Z,11.25
2019-06-11T00:32:21.433Z,11.19
2019-06-11T00:33:40.054Z,11.19
2019-06-11T00:34:52.895Z,11.18
2019-06-11T00:36:07.607Z,11.22
2019-06-11T00:37:18.358Z,11.19
2019-06-11T00:38:29.616Z,11.19
2019-06-11T00:39:39.978Z,11.18
2019-06-11T00:40:52.094Z,11.08
2019-06-11T00:42:08.212Z,11.15
2019-06-11T00:43:22.824Z,11.16
2019-06-11T00:44:35.087Z,11.07
2019-06-11T00:45:46.564Z,11.13
2019-06-11T00:46:58.783Z,11.02
2019-06-11T00:48:14.890Z,11.07
2019-06-11T00:49:25.781Z,11.04
2019-06-11T00:50:38.256Z,11.01
2019-06-11T00:51:52.226Z,11.04
2019-06-11T00:53:06.897Z,11
2019-06-11T00:54:22.972Z,10.95
2019-06-11T00:55:34.559Z,10.98
2019-06-11T00:56:45.281Z,10.92
2019-06-11T00:57:57.891Z,10.86
2019-06-11T00:59:14.983Z,10.84
2019-06-11T01:00:29.566Z,10.83
2019-06-11T01:01:43.107Z,10.84
2019-06-11T01:02:55.127Z,10.75
2019-06-11T01:04:12.594Z,10.77
2019-06-11T01:05:24.998Z,10.68
2019-06-11T01:06:36.794Z,10.65
2019-06-11T01:07:47.749Z,10.68
2019-06-11T01:09:03.994Z,10.69
2019-06-11T01:10:18.855Z,10.61
2019-06-11T01:11:32.859Z,10.62
2019-06-11T01:12:45.517Z,10.64
2019-06-11T01:13:59.049Z,10.59
2019-06-11T01:15:18.836Z,10.58
2019-06-11T01:16:32.909Z,10.59
2019-06-11T01:17:44.756Z,10.48
2019-06-11T01:18:57.465Z,10.57
2019-06-11T01:20:17.453Z,10.55
2019-06-11T01:21:28.804Z,10.48
2019-06-11T01:22:42.196Z,10.53
2019-06-11T01:23:54.747Z,10.57
2019-06-11T01:25:14.577Z,10.49
2019-06-11T01:26:26.271Z,10.45
2019-06-11T01:27:37.694Z,10.48
2019-06-11T01:28:49.622Z,10.55
2019-06-11T01:30:02.758Z,10.53
2019-06-11T01:31:22.546Z,10.46
2019-06-11T01:32:35.122Z,10.42
2019-06-11T01:34:08.556Z,10.46
2019-06-11T01:35:23.475Z,10.45
2019-06-11T01:36:34.919Z,10.49
2019-06-11T01:37:47.317Z,10.42
2019-06-11T01:38:58.370Z,10.36
2019-06-11T01:40:18.820Z,10.42
2019-06-11T01:41:32.811Z,10.34
2019-06-11T01:42:43.036Z,10.36
2019-06-11T01:43:54.903Z,10.42
2019-06-11T01:45:09.377Z,10.31
2019-06-11T01:46:22.394Z,10.49
2019-06-11T01:47:35.034Z,10.45
2019-06-11T01:48:47.888Z,10.42
2019-06-11T01:49:58.970Z,10.51
2019-06-11T01:51:20.188Z,10.55
2019-06-11T01:52:32.569Z,10.43
2019-06-11T01:53:42.925Z,10.51
2019-06-11T01:54:54.910Z,10.45
2019-06-11T01:56:13.807Z,10.46
2019-06-11T01:57:25.368Z,10.49
2019-06-11T01:58:38.215Z,10.55
2019-06-11T01:59:52.007Z,10.43
2019-06-11T02:01:04.053Z,10.24
2019-06-11T02:02:25.335Z,10.18
2019-06-11T02:03:47.879Z,10.15
2019-06-11T02:05:02.536Z,10.2
2019-06-11T02:06:19.519Z,10.02
2019-06-11T02:07:32.964Z,9.99
2019-06-11T02:08:45.416Z,9.92
2019-06-11T02:09:58.339Z,9.92
2019-06-11T02:11:17.026Z,9.92
2019-06-11T02:12:28.755Z,9.91
2019-06-11T02:13:42.686Z,9.92
2019-06-11T02:14:55.123Z,9.92
2019-06-11T02:16:15.932Z,9.84
2019-06-11T02:17:32.524Z,9.94
2019-06-11T02:18:45.357Z,9.97
2019-06-11T02:19:56.932Z,9.88
2019-06-11T02:21:13.935Z,9.92
2019-06-11T02:22:27.690Z,9.9
2019-06-11T02:23:38.425Z,9.87
2019-06-11T02:24:54.629Z,9.84
2019-06-11T02:26:07.648Z,9.84
2019-06-11T02:27:25.560Z,9.84
2019-06-11T02:28:37.770Z,9.87
2019-06-11T02:29:52.139Z,9.88
2019-06-11T02:31:19.769Z,9.88
2019-06-11T02:32:46.462Z,9.92
2019-06-11T02:35:12.051Z,9.87
2019-06-11T02:37:08.503Z,9.91
2019-06-11T02:38:35.395Z,9.92
2019-06-11T02:39:47.187Z,9.87
2019-06-11T02:41:03.243Z,9.88
2019-06-11T02:42:33.946Z,9.77
2019-06-11T02:43:51.122Z,9.8
2019-06-11T02:45:05.169Z,9.84
2019-06-11T02:46:36.789Z,9.84
2019-06-11T02:47:51.772Z,9.77
2019-06-11T02:49:04.235Z,9.82
2019-06-11T02:50:36.334Z,9.84
2019-06-11T02:51:52.233Z,9.8
2019-06-11T02:53:05.704Z,9.81
2019-06-11T02:54:37.076Z,9.74
2019-06-11T02:55:51.140Z,9.72
2019-06-11T02:57:03.886Z,9.69
2019-06-11T02:58:35.810Z,9.7
2019-06-11T02:59:51.396Z,9.66
2019-06-11T03:01:04.965Z,9.62
2019-06-11T03:02:41.997Z,9.64
2019-06-11T03:04:39.260Z,9.59
2019-06-11T03:06:36.888Z,9.64
2019-06-11T03:07:51.928Z,9.59
2019-06-11T03:09:04.412Z,9.59
2019-06-11T03:10:33.669Z,9.66
2019-06-11T03:11:47.215Z,9.56
2019-06-11T03:13:04.369Z,9.7
2019-06-11T03:14:36.868Z,9.59
2019-06-11T03:15:51.298Z,9.7
2019-06-11T03:17:04.505Z,9.72
2019-06-11T03:18:36.671Z,9.62
2019-06-11T03:19:54.299Z,9.66
2019-06-11T03:21:11.883Z,9.7
2019-06-11T03:22:45.291Z,9.81
2019-06-11T03:23:57.036Z,9.8
2019-06-11T03:25:12.154Z,9.88
2019-06-11T03:26:43.632Z,9.9
2019-06-11T03:27:57.467Z,9.91
2019-06-11T03:29:12.024Z,9.97
2019-06-11T03:39:55.955Z,10.13
2019-06-11T03:41:34.721Z,10.21
2019-06-11T03:42:47.098Z,10.13
2019-06-11T03:44:01.741Z,10.3
2019-06-11T03:45:15.799Z,10.38
2019-06-11T03:46:44.361Z,10.48
2019-06-11T03:47:56.493Z,10.57
2019-06-11T03:49:12.594Z,10.59
2019-06-11T03:50:41.311Z,10.58
2019-06-11T03:51:53.884Z,10.76
2019-06-11T03:53:06.860Z,10.82
2019-06-11T03:54:36.381Z,10.84
2019-06-11T03:55:51.448Z,10.84
2019-06-11T03:57:03.765Z,10.94
2019-06-11T03:58:36.090Z,10.95
2019-06-11T03:59:54.244Z,11.07
2019-06-11T04:01:07.764Z,11
2019-06-11T04:02:41.579Z,11.02
2019-06-11T04:03:55.134Z,11.13
2019-06-11T04:05:07.257Z,11.13
2019-06-11T04:07:21.480Z,11.07
2019-06-11T04:09:03.617Z,11.07
2019-06-11T04:10:31.942Z,11.1
2019-06-11T04:11:51.084Z,11.04
2019-06-11T04:13:04.699Z,11
2019-06-11T04:14:25.650Z,10.94
2019-06-11T04:15:44.396Z,10.94
2019-06-11T04:17:48.175Z,10.89
2019-06-11T04:19:15.157Z,10.87
2019-06-11T04:20:44.448Z,10.94
2019-06-11T04:21:56.776Z,11.01
2019-06-11T04:23:23.900Z,11
2019-06-11T04:24:50.728Z,11.07
2019-06-11T04:26:04.252Z,11.13
2019-06-11T04:27:24.126Z,11.12
2019-06-11T04:28:44.165Z,11.12
2019-06-11T04:29:57.493Z,11.23
2019-06-11T04:31:36.110Z,11.26
2019-06-11T04:32:56.753Z,11.43
2019-06-11T04:34:12.612Z,11.43
2019-06-11T04:35:42.625Z,11.48
2019-06-11T04:37:57.870Z,11.48
2019-06-11T04:39:41.913Z,11.53
2019-06-11T04:40:55.135Z,11.53
2019-06-11T04:42:11.554Z,11.56
2019-06-11T04:43:41.866Z,11.55
2019-06-11T04:44:54.091Z,11.58
2019-06-11T04:46:07.226Z,11.62
2019-06-11T04:47:52.766Z,11.62
2019-06-11T04:49:04.978Z,11.7
2019-06-11T04:50:25.041Z,11.77
2019-06-11T04:51:44.608Z,11.74
2019-06-11T04:52:56.636Z,11.81
2019-06-11T04:54:11.273Z,11.93
2019-06-11T04:55:36.128Z,11.88
2019-06-11T04:56:51.891Z,11.97
2019-06-11T04:58:04.054Z,11.95
2019-06-11T04:59:23.770Z,12
2019-06-11T05:05:04.065Z,12.26
2019-06-11T05:06:43.398Z,12.14
2019-06-11T05:08:16.112Z,12.11
2019-06-11T05:09:51.291Z,12.14
2019-06-11T05:11:04.214Z,12.11
2019-06-11T05:12:26.304Z,12.14
2019-06-11T05:14:36.261Z,12.15
2019-06-11T05:16:06.349Z,12.18
2019-06-11T05:17:26.983Z,12.28
2019-06-11T05:18:47.143Z,12.29
2019-06-11T05:20:01.561Z,12.28
2019-06-11T05:21:17.331Z,12.32
2019-06-11T05:22:46.411Z,12.33
2019-06-11T05:24:01.062Z,12.39
2019-06-11T05:25:14.082Z,12.47
2019-06-11T05:26:45.081Z,12.44
2019-06-11T05:27:56.481Z,12.48
2019-06-11T05:29:11.106Z,12.48
2019-06-11T05:30:45.327Z,12.47
2019-06-11T05:31:57.630Z,12.4
2019-06-11T05:33:11.396Z,12.37
2019-06-11T05:34:34.323Z,12.51
2019-06-11T05:35:46.549Z,12.61
2019-06-11T05:37:00.750Z,12.57
2019-06-11T05:38:44.762Z,12.76
2019-06-11T05:40:04.102Z,12.81
2019-06-11T05:41:16.711Z,12.84
2019-06-11T05:42:43.990Z,12.88
2019-06-11T05:43:56.417Z,12.88
2019-06-11T05:45:14.748Z,12.94
2019-06-11T05:46:42.154Z,12.94
2019-06-11T05:47:53.156Z,12.95
2019-06-11T05:49:04.910Z,13.19
2019-06-11T05:50:15.916Z,13.28
2019-06-11T05:51:37.040Z,13.3
2019-06-11T05:52:50.115Z,13.24
2019-06-11T05:54:00.774Z,13.33
2019-06-11T05:55:12.682Z,13.42
2019-06-11T05:56:27.311Z,13.47
2019-06-11T05:57:40.434Z,13.5
2019-06-11T05:58:53.506Z,13.58
2019-06-11T06:00:05.853Z,13.65
2019-06-11T06:01:56.947Z,13.75
2019-06-11T06:03:15.235Z,13.67
2019-06-11T06:04:30.975Z,13.78
2019-06-11T06:05:43.727Z,13.82
2019-06-11T06:06:55.593Z,13.85
2019-06-11T06:08:26.251Z,14.03
2019-06-11T06:09:43.834Z,14.05
2019-06-11T06:10:55.807Z,14.12
2019-06-11T06:12:06.507Z,14.16
2019-06-11T06:13:20.303Z,14.23
2019-06-11T06:14:34.775Z,14.26
2019-06-11T06:15:46.836Z,14.28
2019-06-11T06:17:00.447Z,14.41
2019-06-11T06:18:12.882Z,14.36
2019-06-11T06:19:28.142Z,14.43
2019-06-11T06:20:43.243Z,14.41
2019-06-11T06:21:55.788Z,14.48
2019-06-11T06:23:11.085Z,14.58
2019-06-11T06:24:45.183Z,14.61
2019-06-11T06:26:00.902Z,14.71
2019-06-11T06:27:13.074Z,14.73
2019-06-11T06:28:24.886Z,14.78
2019-06-11T06:29:43.618Z,14.85
2019-06-11T06:30:55.780Z,14.93
2019-06-11T06:32:06.983Z,15.04
2019-06-11T06:33:21.192Z,15.05
2019-06-11T06:34:37.999Z,15.11
2019-06-11T06:35:50.454Z,15.17
2019-06-11T06:37:02.958Z,15.14
2019-06-11T06:38:42.965Z,15.27
2019-06-11T06:39:57.685Z,15.19
2019-06-11T06:41:10.198Z,15.29
2019-06-11T06:42:23.059Z,15.32
2019-06-11T06:43:40.307Z,15.3
2019-06-11T06:44:51.763Z,15.37
2019-06-11T06:46:03.538Z,15.44
2019-06-11T06:47:17.205Z,15.5
2019-06-11T06:48:31.948Z,15.5
2019-06-11T06:49:46.781Z,15.51
2019-06-11T06:51:00.695Z,15.65
2019-06-11T06:52:13.105Z,15.67
2019-06-11T06:53:26.546Z,15.67
2019-06-11T06:54:51.216Z,15.8
2019-06-11T06:56:03.158Z,15.87
2019-06-11T06:57:15.568Z,15.76
2019-06-11T06:58:28.297Z,15.75
2019-06-11T06:59:46.551Z,15.85
2019-06-11T07:01:00.513Z,15.78
2019-06-11T07:02:13.131Z,15.75
2019-06-11T07:03:25.922Z,15.76
2019-06-11T07:04:46.728Z,15.84
2019-06-11T07:05:57.845Z,15.8
2019-06-11T07:07:11.065Z,15.85
2019-06-11T07:08:23.450Z,15.81
2019-06-11T07:09:57.093Z,15.84
2019-06-11T07:11:10.290Z,15.88
2019-06-11T07:12:22.856Z,15.88
2019-06-11T07:13:42.285Z,15.92
2019-06-11T07:14:55.044Z,15.88
2019-06-11T07:16:07.515Z,15.91
2019-06-11T07:17:20.657Z,15.92
2019-06-11T07:18:39.198Z,15.98
2019-06-11T07:20:04.746Z,16.03
2019-06-11T07:21:16.218Z,16.03
2019-06-11T07:22:31.825Z,16.03
2019-06-11T07:23:54.400Z,15.96
2019-06-11T07:25:06.451Z,15.76
2019-06-11T07:26:20.674Z,15.72
2019-06-11T07:27:38.435Z,15.78
2019-06-11T07:28:53.226Z,15.73
2019-06-11T07:30:12.844Z,15.67
2019-06-11T07:31:24.779Z,15.7
2019-06-11T07:32:40.780Z,15.47
2019-06-11T07:33:53.787Z,15.44
2019-06-11T07:35:06.489Z,15.62
2019-06-11T07:36:20.985Z,15.43
2019-06-11T07:37:36.295Z,15.45
2019-06-11T07:41:24.943Z,15.67
2019-06-11T07:42:46.999Z,15.8
2019-06-11T07:44:00.331Z,15.88
2019-06-11T07:45:12.936Z,15.92
2019-06-11T07:47:01.553Z,16.05
2019-06-11T07:48:16.435Z,16.03
2019-06-11T07:49:31.523Z,16.25
2019-06-11T07:50:55.035Z,16.28
2019-06-11T07:52:06.612Z,16.36
2019-06-11T07:53:20.822Z,16.4
2019-06-11T07:54:32.221Z,16.43
2019-06-11T07:57:55.543Z,16.66
2019-06-11T07:59:07.434Z,16.73
2019-06-11T08:00:20.933Z,16.68
2019-06-11T08:01:38.466Z,16.69
2019-06-11T08:03:05.282Z,16.77
2019-06-11T08:04:20.901Z,16.8
2019-06-11T08:05:38.140Z,16.94
2019-06-11T08:07:03.919Z,16.95
2019-06-11T08:08:17.409Z,16.92
2019-06-11T08:10:29.331Z,16.95
2019-06-11T08:14:22.386Z,17.01
2019-06-11T08:15:57.288Z,17.16
2019-06-11T08:17:33.225Z,17.16
2019-06-11T08:19:35.655Z,17.13
2019-06-11T08:24:09.270Z,17.27
2019-06-11T08:28:50.923Z,17.38
2019-06-11T08:30:03.497Z,17.52
2019-06-11T08:31:16.765Z,17.39
2019-06-11T08:32:31.772Z,17.46
2019-06-11T08:34:00.942Z,17.49
2019-06-11T08:35:16.384Z,17.57
2019-06-11T08:36:30.881Z,17.57
2019-06-11T08:37:47.753Z,17.57
2019-06-11T08:39:00.665Z,17.69
2019-06-11T08:40:25.800Z,17.76
2019-06-11T08:41:42.556Z,17.78
2019-06-11T08:42:56.530Z,17.75
2019-06-11T08:44:10.226Z,17.79
2019-06-11T08:45:28.021Z,17.79
2019-06-11T08:46:42.209Z,17.84
2019-06-11T08:47:56.334Z,17.78
2019-06-11T08:49:10.953Z,17.82
2019-06-11T08:50:23.314Z,17.91
2019-06-11T08:51:35.759Z,17.98
2019-06-11T08:52:52.919Z,17.97
2019-06-11T08:54:05.107Z,18
2019-06-11T08:55:15.883Z,18.06
2019-06-11T08:56:28.097Z,18.12
2019-06-11T08:57:44.979Z,18.19
2019-06-11T08:59:00.963Z,18.15
2019-06-11T09:01:01.898Z,18.11
2019-06-11T09:02:20.771Z,18.24
2019-06-11T09:03:33.994Z,18.19
2019-06-11T09:04:55.353Z,18.24
2019-06-11T09:06:10.368Z,18.21
2019-06-11T09:07:24.804Z,18.33
2019-06-11T09:08:37.654Z,18.26
2019-06-11T09:09:55.837Z,18.41
2019-06-11T09:11:10.747Z,18.28
2019-06-11T09:12:21.405Z,18.46
2019-06-11T09:13:33.645Z,18.52
2019-06-11T09:14:56.375Z,18.51
2019-06-11T09:16:10.500Z,18.6
2019-06-11T09:17:24.251Z,18.45
2019-06-11T09:18:36.675Z,18.48
2019-06-11T09:20:04.187Z,18.49
2019-06-11T09:21:15.685Z,18.49
2019-06-11T09:22:30.277Z,18.53
2019-06-11T09:23:47.485Z,18.66
2019-06-11T09:25:06.192Z,18.61
2019-06-11T09:26:17.472Z,18.68
2019-06-11T09:27:30.859Z,18.74
2019-06-11T09:28:46.247Z,18.79
2019-06-11T09:30:09.831Z,18.81
2019-06-11T09:31:24.010Z,18.86
2019-06-11T09:32:35.915Z,18.82
2019-06-11T09:33:55.700Z,18.98
2019-06-11T09:35:10.040Z,18.85
2019-06-11T09:36:21.298Z,18.88
2019-06-11T09:37:33.558Z,19.04
2019-06-11T09:38:52.577Z,19.05
2019-06-11T09:40:03.948Z,19.09
2019-06-11T09:41:15.784Z,19.22
2019-06-11T09:42:28.357Z,19.05
2019-06-11T09:43:41.632Z,18.92
2019-06-11T09:45:02.590Z,19
2019-06-11T09:46:15.615Z,18.96
2019-06-11T09:47:55.536Z,19.08
2019-06-11T09:49:20.933Z,19.09
2019-06-11T09:50:32.851Z,19.2
2019-06-11T09:51:46.043Z,19.08
2019-06-11T09:53:00.663Z,19.15
2019-06-11T09:54:12.943Z,19.24
2019-06-11T09:55:25.277Z,19.23
2019-06-11T09:56:36.324Z,19.37
2019-06-11T09:58:06.473Z,19.27
2019-06-11T09:59:22.447Z,19.26
2019-06-11T10:00:34.940Z,19.35
2019-06-11T10:01:54.167Z,19.19
2019-06-11T10:03:05.247Z,19.2
2019-06-11T10:04:16.329Z,19.26
2019-06-11T10:05:31.179Z,19.29
2019-06-11T10:06:43.712Z,19.41
2019-06-11T10:08:00.521Z,19.24
2019-06-11T10:09:12.888Z,19.32
2019-06-11T10:10:52.882Z,19.41
2019-06-11T10:12:57.547Z,19.64
2019-06-11T10:14:10.490Z,19.71
2019-06-11T10:15:23.040Z,19.75
2019-06-11T10:16:35.501Z,19.79
2019-06-11T10:17:48.333Z,19.82
2019-06-11T10:19:03.756Z,19.79
2019-06-11T10:20:15.431Z,19.87
2019-06-11T10:21:26.111Z,19.82
2019-06-11T10:22:38.256Z,20
2019-06-11T10:23:53.748Z,19.93
2019-06-11T10:25:06.165Z,20.04
2019-06-11T10:26:17.856Z,19.97
2019-06-11T10:27:29.317Z,20.12
2019-06-11T10:28:39.973Z,19.96
2019-06-11T10:29:56.086Z,19.78
2019-06-11T10:31:10.238Z,19.85
2019-06-11T10:32:21.224Z,19.84
2019-06-11T10:33:37.012Z,19.79
2019-06-11T10:34:50.645Z,19.63
2019-06-11T10:36:05.319Z,19.63
2019-06-11T10:37:16.352Z,19.67
2019-06-11T10:38:28.326Z,19.35
2019-06-11T10:39:40.125Z,19.22
2019-06-11T10:41:01.247Z,18.97
2019-06-11T10:42:16.529Z,19.04
2019-06-11T10:43:44.159Z,18.96
2019-06-11T10:45:00.775Z,18.89
2019-06-11T10:46:13.775Z,18.83
2019-06-11T10:47:26.826Z,18.88
2019-06-11T10:48:38.707Z,18.83
2019-06-11T10:49:52.916Z,18.92
2019-06-11T10:51:07.423Z,18.98
2019-06-11T10:52:20.015Z,19.05
2019-06-11T10:53:32.597Z,19.15
2019-06-11T10:54:45.256Z,18.98
2019-06-11T10:56:04.446Z,18.98
2019-06-11T10:57:16.508Z,19.16
2019-06-11T10:58:28.659Z,19.11
2019-06-11T10:59:38.597Z,19.05
2019-06-11T11:00:51.238Z,19.11
2019-06-11T11:02:05.043Z,19.16
2019-06-11T11:03:17.231Z,19.19
2019-06-11T11:04:28.043Z,19.42
2019-06-11T11:05:40.588Z,19.55
2019-06-11T11:06:56.357Z,19.71
2019-06-11T11:08:10.901Z,19.87
2019-06-11T11:09:23.965Z,19.97
2019-06-11T11:10:35.986Z,20.15
2019-06-11T11:12:21.336Z,20.29
2019-06-11T11:13:36.125Z,20.37
2019-06-11T11:14:50.355Z,20.53
2019-06-11T11:16:06.642Z,20.67
2019-06-11T11:17:21.282Z,20.74
2019-06-11T11:18:32.557Z,20.78
2019-06-11T11:19:42.990Z,20.93
2019-06-11T11:20:57.920Z,20.98
2019-06-11T11:22:11.747Z,21.08
2019-06-11T11:23:22.698Z,21.22
2019-06-11T11:24:33.633Z,21.33
2019-06-11T11:25:46.390Z,21.43
2019-06-11T11:27:05.727Z,21.56
2019-06-11T11:28:30.400Z,21.7
2019-06-11T11:29:42.666Z,21.84
2019-06-11T11:31:10.290Z,21.84
2019-06-11T11:32:23.056Z,22.12
2019-06-11T11:33:32.990Z,22.41
2019-06-11T11:34:46.257Z,22.65
2019-06-11T11:36:06.531Z,23.17
2019-06-11T11:37:21.118Z,23.48
2019-06-11T11:38:32.752Z,23.92
2019-06-11T11:39:43.546Z,24.38
2019-06-11T11:41:06.434Z,24.92
2019-06-11T11:42:41.371Z,25.52
2019-06-11T11:44:11.443Z,26.29
2019-06-11T11:45:21.592Z,26.79
2019-06-11T11:46:31.280Z,27.23
2019-06-11T11:47:43.130Z,27.48
2019-06-11T11:49:04.375Z,28.03
2019-06-11T11:50:16.100Z,28.47
2019-06-11T11:51:30.289Z,28.86
2019-06-11T11:52:43.327Z,29.27
2019-06-11T11:54:00.460Z,29.62
2019-06-11T11:55:12.600Z,30.03
2019-06-11T11:56:24.803Z,30.35
2019-06-11T11:57:36.140Z,30.69
2019-06-11T11:58:47.083Z,31.04
2019-06-11T12:00:21.965Z,31.52
2019-06-11T12:01:34.443Z,31.85
2019-06-11T12:02:47.409Z,32.12
2019-06-11T12:04:14.871Z,32.57
2019-06-11T12:05:26.484Z,32.93
2019-06-11T12:06:38.076Z,33.12
2019-06-11T12:07:50.379Z,33.29
2019-06-11T12:09:07.367Z,33.54
2019-06-11T12:10:20.563Z,33.72
2019-06-11T12:11:31.221Z,34
2019-06-11T12:13:06.576Z,34.31
2019-06-11T12:14:20.624Z,34.58
2019-06-11T12:15:33.578Z,34.78
2019-06-11T12:16:48.108Z,35.07
2019-06-11T12:18:02.337Z,35.22
2019-06-11T12:19:25.009Z,35.44
2019-06-11T12:20:36.613Z,35.52
2019-06-11T12:21:48.203Z,35.72
2019-06-11T12:23:12.484Z,35.84
2019-06-11T12:24:22.700Z,35.86
2019-06-11T12:25:43.749Z,35.97
2019-06-11T12:27:05.648Z,36.03
2019-06-11T12:28:16.670Z,36.18
2019-06-11T12:29:30.831Z,36.24
2019-06-11T12:30:43.431Z,36.41
2019-06-11T12:32:11.807Z,36.72
2019-06-11T12:33:23.296Z,36.91
2019-06-11T12:34:36.591Z,37.06
2019-06-11T12:35:55.523Z,37.21
2019-06-11T12:37:12.122Z,37.31
2019-06-11T12:38:22.108Z,37.23
2019-06-11T12:39:33.076Z,37.47
2019-06-11T12:40:44.329Z,37.67
2019-06-11T12:42:11.123Z,37.86
2019-06-11T12:43:41.280Z,37.73
2019-06-11T12:44:55.288Z,37.76
2019-06-11T12:46:14.105Z,37.9
2019-06-11T12:47:28.459Z,37.83
2019-06-11T12:48:43.733Z,37.83
2019-06-11T12:50:06.045Z,37.91
2019-06-11T12:51:24.574Z,38.13
2019-06-11T12:52:37.903Z,38.1
2019-06-11T12:53:50.643Z,38.34
2019-06-11T12:55:13.612Z,38.66
2019-06-11T12:56:26.255Z,38.38
2019-06-11T12:57:36.286Z,37.97
2019-06-11T12:58:57.100Z,38
2019-06-11T13:00:17.167Z,38.04
2019-06-11T13:01:30.702Z,38.34
2019-06-11T13:02:43.509Z,38.14
2019-06-11T13:04:04.008Z,38.16
2019-06-11T13:05:21.172Z,37.57
2019-06-11T13:06:33.214Z,37.14
2019-06-11T13:07:47.684Z,37.18
2019-06-11T13:09:11.111Z,37.58
2019-06-11T13:10:21.207Z,37.72
2019-06-11T13:11:32.961Z,37.75
2019-06-11T13:12:45.519Z,37.72
2019-06-11T13:14:02.459Z,37.91
2019-06-11T13:15:16.706Z,37.85
2019-06-11T13:16:27.695Z,37.76
2019-06-11T13:17:42.428Z,37.88
2019-06-11T13:18:56.805Z,37.73
2019-06-11T13:20:15.248Z,37.57
2019-06-11T13:21:26.513Z,37.22
2019-06-11T13:22:37.785Z,37.03
2019-06-11T13:23:50.994Z,37.15
2019-06-11T13:25:15.020Z,37.47
2019-06-11T13:26:27.067Z,37.54
2019-06-11T13:27:37.854Z,37.73
2019-06-11T13:28:50.395Z,37.85
2019-06-11T13:30:10.375Z,38.32
2019-06-11T13:31:23.195Z,38.6
2019-06-11T13:32:33.181Z,38.81
2019-06-11T13:33:50.476Z,38.95
2019-06-11T13:35:13.165Z,39.08
2019-06-11T13:36:26.387Z,39.15
2019-06-11T13:37:40.276Z,39.41
2019-06-11T13:38:51.783Z,39.38
2019-06-11T13:40:12.938Z,39.25
2019-06-11T13:41:26.179Z,39.37
2019-06-11T13:42:39.858Z,39.32
2019-06-11T13:44:35.833Z,38.98
2019-06-11T13:45:50.101Z,38.5
2019-06-11T13:47:06.626Z,38.36
2019-06-11T13:48:21.467Z,38.28
2019-06-11T13:49:35.085Z,37.71
2019-06-11T13:50:46.548Z,37.45
2019-06-11T13:52:06.804Z,37.11
2019-06-11T13:53:21.216Z,37.16
2019-06-11T13:54:32.508Z,37.21
2019-06-11T13:55:43.083Z,37.44
2019-06-11T13:56:58.592Z,37.86
2019-06-11T13:58:21.501Z,38.17
2019-06-11T13:59:34.225Z,38.51
2019-06-11T14:00:45.956Z,38.84
2019-06-11T14:02:11.775Z,39
2019-06-11T14:03:23.723Z,39.01
2019-06-11T14:04:40.145Z,39.1
2019-06-11T14:05:52.155Z,38.85
2019-06-11T14:07:11.740Z,38.63
2019-06-11T14:08:21.476Z,38.5
2019-06-11T14:09:34.251Z,38.35
2019-06-11T14:10:46.985Z,38.35
2019-06-11T14:12:05.891Z,38.34
2019-06-11T14:13:17.724Z,38
2019-06-11T14:14:40.836Z,37.75
2019-06-11T14:15:55.328Z,37.61
2019-06-11T14:17:13.549Z,37.11
2019-06-11T14:18:25.128Z,36.65
2019-06-11T14:19:36.012Z,36.25
2019-06-11T14:20:50.797Z,35.98
2019-06-11T14:22:10.783Z,35.56
2019-06-11T14:23:22.654Z,34.86
2019-06-11T14:24:35.343Z,34.6
2019-06-11T14:25:47.403Z,34.28
2019-06-11T14:27:06.585Z,34.09
2019-06-11T14:28:21.152Z,34.02
2019-06-11T14:29:34.377Z,33.91
2019-06-11T14:30:45.640Z,33.81
2019-06-11T14:31:56.149Z,33.77
2019-06-11T14:33:16.478Z,33.95
2019-06-11T14:34:28.496Z,34.02
2019-06-11T14:35:40.439Z,34.4
2019-06-11T14:36:54.119Z,34.81
2019-06-11T14:38:14.363Z,35.25
2019-06-11T14:39:25.507Z,35.12
2019-06-11T14:40:40.568Z,34.75
2019-06-11T14:41:52.692Z,34.33
2019-06-11T14:43:11.893Z,34.55
2019-06-11T14:44:46.376Z,35.03
2019-06-11T14:46:07.498Z,35.35
2019-06-11T14:47:20.739Z,35.26
2019-06-11T14:48:32.935Z,35.5
2019-06-11T14:49:43.575Z,35.52
2019-06-11T14:50:55.576Z,35.79
2019-06-11T14:52:13.527Z,36.05
2019-06-11T14:53:30.655Z,36.06
2019-06-11T14:54:42.960Z,35.9
2019-06-11T14:55:54.070Z,35.78
2019-06-11T14:57:14.920Z,35.87
2019-06-11T14:58:26.404Z,35.75
2019-06-11T14:59:40.034Z,35.64
2019-06-11T15:00:56.809Z,35.87
2019-06-11T15:02:16.070Z,36.11
2019-06-11T15:03:30.868Z,36.33
2019-06-11T15:04:43.336Z,36.51
2019-06-11T15:05:57.499Z,36.84
2019-06-11T15:07:20.501Z,36.92
2019-06-11T15:08:30.587Z,36.87
2019-06-11T15:09:43.391Z,37.04
2019-06-11T15:10:56.199Z,37.26
2019-06-11T15:12:21.530Z,36.94
2019-06-11T15:13:32.746Z,36.54
2019-06-11T15:15:18.742Z,36.11
2019-06-11T15:16:34.164Z,35.59
2019-06-11T15:17:47.283Z,35.01
2019-06-11T15:19:07.109Z,34.43
2019-06-11T15:20:32.892Z,33.73
2019-06-11T15:21:56.063Z,33.03
2019-06-11T15:23:15.399Z,32.46
2019-06-11T15:24:30.813Z,32.07
2019-06-11T15:25:40.904Z,31.51
2019-06-11T15:26:52.966Z,31.13
2019-06-11T15:28:09.307Z,30.86
2019-06-11T15:29:23.304Z,30.43
2019-06-11T15:30:40.718Z,29.83
2019-06-11T15:31:54.805Z,29.57
2019-06-11T15:33:16.840Z,29.28
2019-06-11T15:34:26.784Z,29.15
2019-06-11T15:35:42.759Z,28.84
2019-06-11T15:36:56.618Z,28.74
2019-06-11T15:38:21.969Z,28.6
2019-06-11T15:39:32.233Z,28.3
2019-06-11T15:40:43.292Z,28.09
2019-06-11T15:41:55.949Z,27.85
2019-06-11T15:43:21.351Z,27.63
2019-06-11T15:44:34.203Z,27.52
2019-06-11T15:45:49.135Z,27.37
2019-06-11T15:47:01.739Z,27.22
2019-06-11T15:48:23.628Z,27.03
2019-06-11T15:49:36.310Z,26.88
2019-06-11T15:50:47.942Z,26.73
2019-06-11T15:52:00.690Z,26.55
2019-06-11T15:53:20.558Z,26.29
2019-06-11T15:54:33.191Z,26.07
2019-06-11T15:55:46.989Z,26.01
2019-06-11T15:56:57.562Z,25.68
2019-06-11T15:58:14.253Z,25.58
2019-06-11T15:59:27.012Z,25.44
2019-06-11T16:00:40.392Z,25.31
2019-06-11T16:01:54.017Z,25.36
2019-06-11T16:03:13.292Z,25.19
2019-06-11T16:04:27.429Z,25.07
2019-06-11T16:05:37.924Z,24.99
2019-06-11T16:06:50.132Z,24.93
2019-06-11T16:08:00.306Z,24.86
2019-06-11T16:09:31.229Z,24.89
2019-06-11T16:10:43.817Z,24.88
2019-06-11T16:11:56.402Z,24.78
2019-06-11T16:13:15.053Z,24.77
2019-06-11T16:14:30.998Z,24.74
2019-06-11T16:15:51.623Z,24.62
2019-06-11T16:17:03.664Z,24.62
2019-06-11T16:18:24.303Z,24.62
2019-06-11T16:19:36.046Z,24.56
2019-06-11T16:20:46.998Z,24.47
2019-06-11T16:21:58.715Z,24.44
2019-06-11T16:23:13.386Z,24.37
2019-06-11T16:24:27.279Z,24.38
2019-06-11T16:25:40.455Z,24.26
2019-06-11T16:26:53.036Z,24.26
2019-06-11T16:28:04.518Z,24.26
2019-06-11T16:29:23.238Z,24.24
2019-06-11T16:30:33.176Z,24.1
2019-06-11T16:31:45.506Z,24.11
2019-06-11T16:32:57.248Z,24.01
2019-06-11T16:34:07.337Z,24.07
2019-06-11T16:35:30.985Z,23.99
2019-06-11T16:36:43.478Z,23.91
2019-06-11T16:37:56.024Z,23.88
2019-06-11T16:39:07.867Z,23.67
2019-06-11T16:40:23.997Z,23.69
2019-06-11T16:41:36.870Z,23.58
2019-06-11T16:42:50.470Z,23.64
2019-06-11T16:44:02.909Z,23.52
2019-06-11T16:45:19.286Z,23.52
2019-06-11T16:46:33.289Z,23.45
2019-06-11T16:47:45.944Z,23.44
2019-06-11T16:49:00.674Z,23.44
2019-06-11T16:50:22.768Z,23.39
2019-06-11T16:51:35.753Z,23.21
2019-06-11T16:52:45.921Z,23.29
2019-06-11T16:54:00.426Z,23.2
2019-06-11T16:55:16.957Z,23.25
2019-06-11T16:56:30.719Z,23.16
2019-06-11T16:57:43.100Z,23.21
2019-06-11T16:58:56.108Z,23.21
2019-06-11T17:00:32.824Z,23.1
2019-06-11T17:01:46.232Z,23.11
2019-06-11T17:02:58.023Z,23.02
2019-06-11T17:04:12.282Z,23.01
2019-06-11T17:05:33.079Z,22.99
2019-06-11T17:06:45.111Z,22.92